Time;durP1;ratioP1;P1;durP2;ratioP2;P2;SDS_P1;SDS_P2;PMS_P1;PMS_P2;Temp;Humidity;BMP_temperature;BMP_pressure;BME280_temperature;BME280_humidity;BME280_pressure;Samples;Min_cycle;Max_cycle;Signal;HPM_P1;HPM_P2
2021/12/20 00:00:23;;;;;;;;;;;5.30;99.90;;;;;;5043488;28;20029;-78
2021/12/20 00:02:52;;;;;;;;;;;5.20;99.90;;;;;;5045718;28;19955;-78
2021/12/20 00:05:22;;;;;;;;;;;5.10;99.90;;;;;;5048218;28;19927;-78
2021/12/20 00:07:49;;;;;;;;;;;5.20;99.90;;;;;;5043515;28;19920;-78
2021/12/20 00:10:16;;;;;;;;;;;5.10;99.90;;;;;;5043142;28;19979;-77
2021/12/20 00:12:43;;;;;;;;;;;5.20;99.90;;;;;;5051366;28;19955;-78
2021/12/20 00:15:10;;;;;;;;;;;5.20;99.90;;;;;;5049056;28;20351;-77
2021/12/20 00:17:37;;;;;;;;;;;5.10;99.90;;;;;;5045871;28;19951;-78
2021/12/20 00:20:04;;;;;;;;;;;5.20;99.90;;;;;;5045618;28;19925;-77
2021/12/20 00:22:31;;;;;;;;;;;5.20;99.90;;;;;;5047469;28;19920;-77
2021/12/20 00:24:58;;;;;;;;;;;5.20;99.90;;;;;;5046578;28;19927;-78
2021/12/20 00:27:25;;;;;;;;;;;5.10;99.90;;;;;;5047418;28;20351;-78
2021/12/20 00:29:51;;;;;;;;;;;5.10;99.90;;;;;;5038139;28;20386;-78
2021/12/20 00:32:18;;;;;;;;;;;5.20;99.90;;;;;;5050844;28;19936;-77
2021/12/20 00:34:45;;;;;;;;;;;5.20;99.90;;;;;;5060273;28;20325;-77
2021/12/20 00:42:43;;;;;;;;;;;5.20;99.90;;;;;;5043287;28;19929;-78
2021/12/20 00:45:11;;;;;;;;;;;5.10;99.90;;;;;;5046000;28;19920;-78
2021/12/20 00:47:39;;;;;;;;;;;5.10;99.90;;;;;;5044756;28;19921;-78
2021/12/20 00:50:07;;;;;;;;;;;5.20;99.90;;;;;;5043242;28;19921;-78
2021/12/20 00:52:34;;;;;;;;;;;5.20;99.90;;;;;;5045200;28;20067;-78
2021/12/20 00:55:00;;;;;;;;;;;5.20;99.90;;;;;;5047681;28;20011;-78
2021/12/20 00:57:27;;;;;;;;;;;5.20;99.90;;;;;;5044393;28;19943;-78
2021/12/20 00:59:54;;;;;;;;;;;5.20;99.90;;;;;;5039726;28;19921;-78
2021/12/20 01:02:20;;;;;;;;;;;5.20;99.90;;;;;;5045439;28;19921;-78
2021/12/20 01:04:47;;;;;;;;;;;5.20;99.90;;;;;;5047103;28;19929;-78
2021/12/20 01:07:14;;;;;;;;;;;5.10;99.90;;;;;;5045334;28;19921;-78
2021/12/20 01:09:41;;;;;;;;;;;5.10;99.90;;;;;;5061940;28;19928;-78
2021/12/20 01:12:15;;;;;;;;;;;5.10;99.90;;;;;;5046771;28;19921;-78
2021/12/20 01:14:42;;;;;;;;;;;5.00;99.90;;;;;;5040170;28;19921;-78
2021/12/20 01:17:08;;;;;;;;;;;4.90;99.90;;;;;;5042911;28;20003;-78
2021/12/20 01:19:36;;;;;;;;;;;4.80;99.90;;;;;;5040582;28;19943;-78
2021/12/20 01:22:04;;;;;;;;;;;4.80;99.90;;;;;;5033826;28;20477;-78
2021/12/20 01:24:31;;;;;;;;;;;4.80;99.90;;;;;;5045537;28;20340;-78
2021/12/20 01:26:57;;;;;;;;;;;4.70;99.90;;;;;;5046188;28;19991;-78
2021/12/20 01:29:24;;;;;;;;;;;4.70;99.90;;;;;;5039716;28;20003;-78
2021/12/20 01:31:51;;;;;;;;;;;4.70;99.90;;;;;;5046558;28;19947;-78
2021/12/20 01:34:17;;;;;;;;;;;4.70;99.90;;;;;;5039859;28;19920;-77
2021/12/20 01:36:52;;;;;;;;;;;4.80;99.90;;;;;;5049912;28;20601;-78
2021/12/20 01:39:18;;;;;;;;;;;4.70;99.90;;;;;;5044406;28;20374;-78
2021/12/20 01:41:45;;;;;;;;;;;4.80;99.90;;;;;;5045214;28;20401;-78
2021/12/20 01:44:12;;;;;;;;;;;5.00;99.90;;;;;;5045499;28;19927;-78
2021/12/20 01:46:40;;;;;;;;;;;5.00;99.90;;;;;;5037840;28;19929;-78
2021/12/20 01:49:11;;;;;;;;;;;5.10;99.90;;;;;;5045445;28;19920;-78
2021/12/20 01:54:18;;;;;;;;;;;5.10;99.90;;;;;;5045122;28;20015;-78
2021/12/20 01:56:45;;;;;;;;;;;5.20;99.90;;;;;;5059122;28;20302;-78
2021/12/20 01:59:12;;;;;;;;;;;5.20;99.90;;;;;;5047069;28;19921;-77
2021/12/20 02:01:39;;;;;;;;;;;5.20;99.90;;;;;;5044119;28;20357;-78
2021/12/20 02:04:09;;;;;;;;;;;5.20;99.90;;;;;;5047040;28;20340;-78
2021/12/20 02:06:40;;;;;;;;;;;5.30;99.90;;;;;;5043790;28;20303;-78
2021/12/20 02:09:11;;;;;;;;;;;5.30;99.90;;;;;;5050465;28;19920;-78
2021/12/20 02:11:39;;;;;;;;;;;5.20;99.90;;;;;;5047367;28;19921;-78
2021/12/20 02:14:14;;;;;;;;;;;5.30;99.90;;;;;;5048871;28;19963;-78
2021/12/20 02:16:42;;;;;;;;;;;5.30;99.90;;;;;;5043218;28;19925;-78
2021/12/20 02:19:10;;;;;;;;;;;5.30;99.90;;;;;;5043733;28;20000;-78
2021/12/20 02:21:37;;;;;;;;;;;5.30;99.90;;;;;;5049735;28;19928;-78
2021/12/20 02:24:04;;;;;;;;;;;5.30;99.90;;;;;;5050882;28;19935;-78
2021/12/20 02:26:35;;;;;;;;;;;5.30;99.90;;;;;;5047745;28;19920;-78
2021/12/20 02:29:05;;;;;;;;;;;5.30;99.90;;;;;;5047654;28;20007;-78
2021/12/20 02:40:04;;;;;;;;;;;5.20;99.90;;;;;;5040317;28;20150;-78
2021/12/20 02:42:34;;;;;;;;;;;5.30;99.90;;;;;;5044666;28;19930;-78
2021/12/20 02:45:10;;;;;;;;;;;5.30;99.90;;;;;;5025822;28;19927;-77
2021/12/20 02:47:40;;;;;;;;;;;5.30;99.90;;;;;;5046325;28;20390;-76
2021/12/20 02:50:11;;;;;;;;;;;5.30;99.90;;;;;;5045684;28;19952;-76
2021/12/20 02:52:41;;;;;;;;;;;5.30;99.90;;;;;;5028096;28;20007;-77
2021/12/20 02:55:08;;;;;;;;;;;5.30;99.90;;;;;;5041517;28;19920;-77
2021/12/20 02:57:36;;;;;;;;;;;5.20;99.90;;;;;;5046400;28;19925;-77
2021/12/20 03:00:07;;;;;;;;;;;5.10;99.90;;;;;;5047176;28;19993;-77
2021/12/20 03:02:33;;;;;;;;;;;5.10;99.90;;;;;;5043598;28;19930;-77
2021/12/20 03:05:03;;;;;;;;;;;5.10;99.90;;;;;;5042150;28;20052;-77
2021/12/20 03:07:37;;;;;;;;;;;5.00;99.90;;;;;;5043737;28;19929;-77
2021/12/20 03:10:04;;;;;;;;;;;4.90;99.90;;;;;;5046706;28;19924;-77
2021/12/20 03:12:32;;;;;;;;;;;4.80;99.90;;;;;;5046863;28;20401;-77
2021/12/20 03:15:12;;;;;;;;;;;4.70;99.90;;;;;;5030891;28;20379;-77
2021/12/20 03:17:39;;;;;;;;;;;4.60;99.90;;;;;;5049793;28;20338;-77
2021/12/20 03:20:06;;;;;;;;;;;4.50;99.90;;;;;;5048247;28;19963;-77
2021/12/20 03:22:33;;;;;;;;;;;4.50;99.90;;;;;;5049479;28;19927;-77
2021/12/20 03:25:02;;;;;;;;;;;4.40;99.90;;;;;;5048107;28;20433;-77
2021/12/20 03:27:29;;;;;;;;;;;4.30;99.90;;;;;;5047624;28;20171;-77
2021/12/20 03:29:56;;;;;;;;;;;4.30;99.90;;;;;;5060359;28;20185;-78
2021/12/20 03:32:22;;;;;;;;;;;4.20;99.90;;;;;;5048224;28;19921;-78
2021/12/20 03:34:49;;;;;;;;;;;4.20;99.90;;;;;;5046816;28;20353;-78
2021/12/20 03:37:16;;;;;;;;;;;4.20;99.90;;;;;;5048595;28;19967;-78
2021/12/20 03:39:43;;;;;;;;;;;4.20;99.90;;;;;;5046021;28;19929;-78
2021/12/20 03:42:09;;;;;;;;;;;4.20;99.90;;;;;;5046139;28;19931;-78
2021/12/20 03:44:43;;;;;;;;;;;4.20;99.90;;;;;;5041897;28;19929;-77
2021/12/20 03:47:10;;;;;;;;;;;4.30;99.90;;;;;;5044963;28;20022;-78
2021/12/20 03:49:36;;;;;;;;;;;4.30;99.90;;;;;;5047029;28;20402;-78
2021/12/20 03:52:07;;;;;;;;;;;4.30;99.90;;;;;;5043945;28;19924;-77
2021/12/20 03:54:34;;;;;;;;;;;4.30;99.90;;;;;;5046419;28;19921;-78
2021/12/20 03:57:00;;;;;;;;;;;4.30;99.90;;;;;;5046847;28;19928;-77
2021/12/20 03:59:30;;;;;;;;;;;4.20;99.90;;;;;;5049605;28;19920;-77
2021/12/20 04:01:57;;;;;;;;;;;4.20;99.90;;;;;;5047627;28;19920;-78
2021/12/20 04:04:31;;;;;;;;;;;4.10;99.90;;;;;;5045773;28;19925;-77
2021/12/20 04:06:58;;;;;;;;;;;4.00;99.90;;;;;;5048004;28;19920;-78
2021/12/20 04:09:24;;;;;;;;;;;4.00;99.90;;;;;;5050051;28;19925;-77
2021/12/20 04:11:51;;;;;;;;;;;4.00;99.90;;;;;;5066440;28;19920;-77
2021/12/20 04:14:18;;;;;;;;;;;4.00;99.90;;;;;;5049511;28;19928;-78
2021/12/20 04:16:45;;;;;;;;;;;4.00;99.90;;;;;;5045484;28;19929;-78
2021/12/20 04:19:11;;;;;;;;;;;4.00;99.90;;;;;;5045747;28;20382;-78
2021/12/20 04:21:38;;;;;;;;;;;3.90;99.90;;;;;;5046911;28;19954;-78
2021/12/20 04:24:04;;;;;;;;;;;3.90;99.90;;;;;;5047093;28;19924;-77
2021/12/20 04:26:31;;;;;;;;;;;4.00;99.90;;;;;;5045265;28;19925;-77
2021/12/20 04:28:58;;;;;;;;;;;3.90;99.90;;;;;;5043686;28;20231;-77
2021/12/20 04:31:25;;;;;;;;;;;3.90;99.90;;;;;;5038235;28;19932;-77
2021/12/20 04:33:52;;;;;;;;;;;3.80;99.90;;;;;;5045167;28;19920;-77
2021/12/20 04:36:18;;;;;;;;;;;3.80;99.90;;;;;;5061377;28;20019;-77
2021/12/20 04:38:45;;;;;;;;;;;3.70;99.90;;;;;;5044064;28;19927;-77
2021/12/20 04:41:12;;;;;;;;;;;3.60;99.90;;;;;;5047671;28;20012;-77
2021/12/20 04:43:39;;;;;;;;;;;3.60;99.90;;;;;;5045181;28;19924;-77
2021/12/20 04:46:06;;;;;;;;;;;3.60;99.90;;;;;;5044883;28;20274;-77
2021/12/20 04:48:32;;;;;;;;;;;3.50;99.90;;;;;;5046532;28;19928;-77
2021/12/20 04:50:59;;;;;;;;;;;3.70;99.90;;;;;;5044629;28;19924;-77
2021/12/20 04:53:25;;;;;;;;;;;3.80;99.90;;;;;;5047607;28;19921;-77
2021/12/20 04:55:52;;;;;;;;;;;3.80;99.90;;;;;;5047272;28;19927;-77
2021/12/20 04:58:19;;;;;;;;;;;3.70;99.90;;;;;;5044757;28;19925;-77
2021/12/20 05:00:46;;;;;;;;;;;3.70;99.90;;;;;;5047417;28;20031;-77
2021/12/20 05:03:13;;;;;;;;;;;3.70;99.90;;;;;;5043439;28;20413;-77
2021/12/20 05:05:40;;;;;;;;;;;3.80;99.90;;;;;;5044697;28;19928;-77
2021/12/20 05:08:11;;;;;;;;;;;3.70;99.90;;;;;;5060101;28;20710;-77
2021/12/20 05:10:40;;;;;;;;;;;3.70;99.90;;;;;;5060488;28;19935;-77
2021/12/20 05:13:08;;;;;;;;;;;3.70;99.90;;;;;;5046871;28;19921;-77
2021/12/20 05:15:36;;;;;;;;;;;3.60;99.90;;;;;;5044465;28;20039;-77
2021/12/20 05:18:03;;;;;;;;;;;3.60;99.90;;;;;;5046830;28;19920;-77
2021/12/20 05:20:30;;;;;;;;;;;3.60;99.90;;;;;;5046271;28;19929;-77
2021/12/20 05:22:57;;;;;;;;;;;3.60;99.90;;;;;;5044843;28;19931;-77
2021/12/20 05:25:24;;;;;;;;;;;3.60;99.90;;;;;;5047544;28;19920;-77
2021/12/20 05:27:51;;;;;;;;;;;3.50;99.90;;;;;;5046630;28;19956;-77
2021/12/20 05:30:18;;;;;;;;;;;3.50;99.90;;;;;;5046837;28;20290;-77
2021/12/20 05:32:45;;;;;;;;;;;3.50;99.90;;;;;;5046350;28;19979;-77
2021/12/20 05:35:12;;;;;;;;;;;3.50;99.90;;;;;;5046393;28;19921;-77
2021/12/20 05:37:42;;;;;;;;;;;3.40;99.90;;;;;;5049414;28;19930;-77
2021/12/20 05:40:10;;;;;;;;;;;3.50;99.90;;;;;;5048294;28;19921;-77
2021/12/20 05:42:36;;;;;;;;;;;3.40;99.90;;;;;;5045768;28;19921;-77
2021/12/20 05:45:04;;;;;;;;;;;3.40;99.90;;;;;;5045912;28;19943;-77
2021/12/20 05:47:30;;;;;;;;;;;3.40;99.90;;;;;;5051252;28;20287;-77
2021/12/20 05:49:57;;;;;;;;;;;3.50;99.90;;;;;;5040664;28;19928;-77
2021/12/20 05:52:24;;;;;;;;;;;3.40;99.90;;;;;;5040260;28;19920;-77
2021/12/20 05:54:51;;;;;;;;;;;3.50;99.90;;;;;;5050548;28;20746;-77
2021/12/20 05:57:17;;;;;;;;;;;3.60;99.90;;;;;;5049505;28;19920;-77
2021/12/20 05:59:44;;;;;;;;;;;3.60;99.90;;;;;;5050894;28;20383;-77
2021/12/20 06:02:11;;;;;;;;;;;3.60;99.90;;;;;;5050671;28;19921;-77
2021/12/20 06:04:38;;;;;;;;;;;3.70;99.90;;;;;;5050580;28;19920;-76
2021/12/20 06:07:05;;;;;;;;;;;3.80;99.90;;;;;;5063007;28;19927;-77
2021/12/20 06:09:35;;;;;;;;;;;3.80;99.90;;;;;;5048842;28;19924;-77
2021/12/20 06:12:01;;;;;;;;;;;3.90;99.90;;;;;;5052198;28;19927;-77
2021/12/20 06:14:28;;;;;;;;;;;3.90;99.90;;;;;;5049808;28;19921;-77
2021/12/20 06:16:59;;;;;;;;;;;3.90;99.90;;;;;;5049172;28;19971;-77
2021/12/20 06:19:27;;;;;;;;;;;4.00;99.90;;;;;;5048687;28;20019;-77
2021/12/20 06:21:54;;;;;;;;;;;3.90;99.90;;;;;;5048776;28;19921;-77
2021/12/20 06:24:21;;;;;;;;;;;3.90;99.90;;;;;;5049235;28;19960;-76
2021/12/20 06:26:49;;;;;;;;;;;3.90;99.90;;;;;;5042310;28;19925;-77
2021/12/20 06:29:16;;;;;;;;;;;3.70;99.90;;;;;;5048098;28;19925;-76
2021/12/20 06:31:43;;;;;;;;;;;3.60;99.90;;;;;;5045865;28;19928;-77
2021/12/20 06:34:09;;;;;;;;;;;3.40;99.90;;;;;;5044776;28;19921;-77
2021/12/20 06:36:36;;;;;;;;;;;3.20;99.90;;;;;;5049707;28;19924;-77
2021/12/20 06:39:04;;;;;;;;;;;3.00;99.90;;;;;;5047951;28;20007;-77
2021/12/20 06:41:31;;;;;;;;;;;2.70;99.90;;;;;;5051686;28;20477;-76
2021/12/20 06:44:02;;;;;;;;;;;2.50;99.90;;;;;;5048813;28;19921;-77
2021/12/20 06:46:29;;;;;;;;;;;2.20;99.90;;;;;;5040800;28;19925;-76
2021/12/20 06:48:59;;;;;;;;;;;2.10;99.90;;;;;;5047122;28;19928;-77
2021/12/20 06:51:26;;;;;;;;;;;1.90;99.90;;;;;;5046965;28;20237;-76
2021/12/20 06:53:55;;;;;;;;;;;1.80;99.90;;;;;;5050830;28;19959;-77
2021/12/20 06:56:22;;;;;;;;;;;1.60;99.90;;;;;;5050441;28;19920;-76
2021/12/20 06:58:48;;;;;;;;;;;1.50;99.90;;;;;;5047184;28;20409;-76
2021/12/20 07:01:15;;;;;;;;;;;1.30;99.90;;;;;;5049279;28;19927;-76
2021/12/20 07:03:43;;;;;;;;;;;1.20;99.90;;;;;;5040184;28;19947;-76
2021/12/20 07:06:10;;;;;;;;;;;1.10;99.90;;;;;;5047887;28;20159;-76
2021/12/20 07:08:37;;;;;;;;;;;1.00;99.90;;;;;;5050817;28;20594;-77
2021/12/20 07:11:06;;;;;;;;;;;0.90;99.90;;;;;;5042170;28;20331;-76
2021/12/20 07:13:35;;;;;;;;;;;0.90;99.90;;;;;;5041024;28;19979;-77
2021/12/20 07:16:02;;;;;;;;;;;0.70;99.90;;;;;;5044252;28;20007;-78
2021/12/20 07:18:28;;;;;;;;;;;0.70;99.90;;;;;;5047110;28;19927;-77
2021/12/20 07:20:55;;;;;;;;;;;0.80;99.90;;;;;;5050703;28;19979;-78
2021/12/20 07:23:23;;;;;;;;;;;0.90;99.90;;;;;;5048531;28;19990;-78
2021/12/20 07:25:50;;;;;;;;;;;0.90;99.90;;;;;;5047454;28;19929;-78
2021/12/20 07:28:17;;;;;;;;;;;0.90;99.90;;;;;;5048232;28;20342;-78
2021/12/20 07:30:47;;;;;;;;;;;1.00;99.90;;;;;;5040416;28;19925;-77
2021/12/20 07:33:18;;;;;;;;;;;1.00;99.90;;;;;;5043754;28;19982;-78
2021/12/20 07:35:46;;;;;;;;;;;1.10;99.90;;;;;;5044162;28;19964;-77
2021/12/20 07:38:14;;;;;;;;;;;1.20;99.90;;;;;;5043032;28;19924;-78
2021/12/20 07:40:45;;;;;;;;;;;1.20;99.90;;;;;;5043695;28;20437;-78
2021/12/20 07:43:14;;;;;;;;;;;1.30;99.90;;;;;;5045942;28;19931;-77
2021/12/20 07:45:41;;;;;;;;;;;1.30;99.90;;;;;;5052740;28;19921;-78
2021/12/20 07:48:08;;;;;;;;;;;1.30;99.90;;;;;;5055379;28;20696;-78
2021/12/20 07:50:34;;;;;;;;;;;1.30;99.90;;;;;;5045715;28;20599;-78
2021/12/20 07:53:02;;;;;;;;;;;1.20;99.90;;;;;;5042795;28;19964;-78
2021/12/20 07:55:28;;;;;;;;;;;1.30;99.90;;;;;;5042424;28;19921;-78
2021/12/20 07:57:55;;;;;;;;;;;1.40;99.90;;;;;;5043274;28;19925;-78
2021/12/20 08:00:22;;;;;;;;;;;1.50;99.90;;;;;;5046962;28;19927;-75
2021/12/20 08:02:49;;;;;;;;;;;1.60;99.90;;;;;;5044664;28;19920;-76
2021/12/20 08:05:18;;;;;;;;;;;1.70;99.90;;;;;;5028729;28;19920;-76
2021/12/20 08:07:47;;;;;;;;;;;1.90;99.90;;;;;;5043064;28;19978;-78
2021/12/20 08:10:15;;;;;;;;;;;2.00;99.90;;;;;;5040298;28;19952;-78
2021/12/20 08:12:42;;;;;;;;;;;2.10;99.90;;;;;;5039958;28;19920;-78
2021/12/20 08:15:09;;;;;;;;;;;2.30;99.90;;;;;;5031690;28;19930;-78
2021/12/20 08:17:35;;;;;;;;;;;2.50;99.90;;;;;;5044198;28;19927;-78
2021/12/20 08:20:03;;;;;;;;;;;2.60;99.90;;;;;;5043870;28;20035;-78
2021/12/20 08:22:30;;;;;;;;;;;2.90;99.90;;;;;;5034865;28;19927;-79
2021/12/20 08:24:57;;;;;;;;;;;3.10;99.90;;;;;;5040647;28;19931;-79
2021/12/20 08:27:24;;;;;;;;;;;3.30;99.90;;;;;;5041062;28;19932;-78
2021/12/20 08:29:58;;;;;;;;;;;3.40;99.90;;;;;;5121384;27;19923;-67
2021/12/20 08:32:28;;;;;;;;;;;3.50;99.90;;;;;;5121274;27;19927;-69
2021/12/20 08:34:55;;;;;;;;;;;3.70;99.90;;;;;;5123009;27;20026;-67
2021/12/20 08:37:22;;;;;;;;;;;4.00;99.90;;;;;;5113619;27;19935;-67
2021/12/20 08:39:49;;;;;;;;;;;4.10;99.90;;;;;;5113815;27;20410;-70
2021/12/20 08:42:17;;;;;;;;;;;4.30;99.90;;;;;;5119376;27;19927;-67
2021/12/20 08:44:43;;;;;;;;;;;4.50;99.90;;;;;;5114159;27;19924;-67
2021/12/20 08:47:10;;;;;;;;;;;4.70;99.90;;;;;;5111973;27;19927;-67
2021/12/20 08:49:37;;;;;;;;;;;4.90;99.90;;;;;;5115055;27;19928;-67
2021/12/20 08:52:04;;;;;;;;;;;5.10;99.90;;;;;;5112803;27;19924;-67
2021/12/20 08:54:32;;;;;;;;;;;5.20;99.90;;;;;;5116976;27;19932;-67
2021/12/20 08:56:58;;;;;;;;;;;5.40;99.90;;;;;;5113125;27;19935;-67
2021/12/20 08:59:25;;;;;;;;;;;5.60;99.90;;;;;;5112567;27;19931;-67
2021/12/20 09:01:52;;;;;;;;;;;5.90;99.90;;;;;;5111293;27;19928;-67
2021/12/20 09:04:20;;;;;;;;;;;6.30;99.90;;;;;;5117001;27;20382;-67
2021/12/20 09:06:49;;;;;;;;;;;6.60;99.90;;;;;;5114621;27;19931;-67
2021/12/20 09:09:17;;;;;;;;;;;6.80;99.90;;;;;;5120964;27;19932;-68
2021/12/20 09:11:44;;;;;;;;;;;6.70;99.90;;;;;;5109591;27;19924;-68
2021/12/20 09:14:12;;;;;;;;;;;6.60;99.90;;;;;;5121406;27;20026;-67
2021/12/20 09:16:39;;;;;;;;;;;6.80;99.90;;;;;;5117679;27;19930;-68
2021/12/20 09:19:05;;;;;;;;;;;7.10;99.90;;;;;;5125010;27;20290;-67
2021/12/20 09:21:34;;;;;;;;;;;7.40;99.90;;;;;;5113998;27;19923;-67
2021/12/20 09:24:03;;;;;;;;;;;7.40;99.90;;;;;;5109105;27;20398;-67
2021/12/20 09:26:30;;;;;;;;;;;7.50;99.90;;;;;;5122771;27;20608;-67
2021/12/20 09:28:57;;;;;;;;;;;7.90;99.90;;;;;;5115185;27;20377;-67
2021/12/20 09:31:24;;;;;;;;;;;7.90;99.90;;;;;;5116704;27;19923;-68
2021/12/20 09:33:51;;;;;;;;;;;8.50;99.90;;;;;;5113947;27;19927;-67
2021/12/20 09:36:17;;;;;;;;;;;8.50;99.90;;;;;;5114640;27;19928;-67
2021/12/20 09:38:44;;;;;;;;;;;8.40;99.90;;;;;;5112546;27;19938;-67
2021/12/20 09:41:27;;;;;;;;;;;8.50;99.90;;;;;;5102671;28;19932;-67
2021/12/20 09:43:55;;;;;;;;;;;8.50;99.90;;;;;;5103061;28;20300;-67
2021/12/20 09:46:24;;;;;;;;;;;8.20;99.90;;;;;;5096754;28;19924;-67
2021/12/20 09:48:51;;;;;;;;;;;8.10;99.90;;;;;;5099244;28;19951;-67
2021/12/20 09:51:18;;;;;;;;;;;8.30;99.90;;;;;;5110072;28;19934;-66
2021/12/20 09:53:45;;;;;;;;;;;8.50;99.90;;;;;;5098923;28;19938;-66
2021/12/20 09:56:11;;;;;;;;;;;8.50;99.90;;;;;;5107933;27;19923;-66
2021/12/20 09:58:40;;;;;;;;;;;8.10;99.90;;;;;;5117633;27;20022;-66
2021/12/20 10:01:08;;;;;;;;;;;8.00;99.90;;;;;;5099021;28;19930;-66
2021/12/20 10:03:35;;;;;;;;;;;7.70;99.90;;;;;;5098339;28;19928;-66
2021/12/20 10:06:03;;;;;;;;;;;7.90;99.90;;;;;;5093385;28;19948;-67
2021/12/20 10:08:34;;;;;;;;;;;8.20;99.90;;;;;;5103462;27;19931;-67
2021/12/20 10:11:16;;;;;;;;;;;9.00;99.90;;;;;;5105533;28;19950;-67
2021/12/20 10:13:43;;;;;;;;;;;9.50;99.90;;;;;;5100269;28;19924;-67
2021/12/20 10:16:17;;;;;;;;;;;9.60;99.90;;;;;;5096787;28;19934;-67
2021/12/20 10:18:44;;;;;;;;;;;9.90;99.90;;;;;;5105108;28;19928;-67
2021/12/20 10:21:11;;;;;;;;;;;9.80;99.90;;;;;;5112959;27;20348;-67
2021/12/20 10:23:40;;;;;;;;;;;9.70;99.90;;;;;;5103416;28;19955;-67
2021/12/20 10:26:12;;;;;;;;;;;9.70;99.90;;;;;;5094773;28;19932;-67
2021/12/20 10:28:40;;;;;;;;;;;9.60;99.90;;;;;;5100200;28;19930;-67
2021/12/20 10:31:12;;;;;;;;;;;9.60;99.90;;;;;;5099500;28;19924;-67
2021/12/20 10:33:39;;;;;;;;;;;9.40;99.90;;;;;;5102807;27;20011;-66
2021/12/20 10:36:07;;;;;;;;;;;9.20;99.90;;;;;;5098462;28;20573;-67
2021/12/20 10:38:38;;;;;;;;;;;9.30;99.90;;;;;;5099207;27;19932;-67
2021/12/20 10:41:04;;;;;;;;;;;9.40;99.90;;;;;;5100236;27;20457;-67
2021/12/20 10:43:49;;;;;;;;;;;10.00;99.90;;;;;;5104218;27;20014;-67
2021/12/20 10:46:29;;;;;;;;;;;10.40;99.90;;;;;;5096043;27;20394;-67
2021/12/20 10:49:08;;;;;;;;;;;10.30;99.90;;;;;;5100898;28;19924;-67
2021/12/20 10:51:36;;;;;;;;;;;10.40;99.90;;;;;;5094237;27;20277;-67
2021/12/20 10:54:07;;;;;;;;;;;10.60;99.90;;;;;;5099967;28;19934;-67
2021/12/20 10:56:36;;;;;;;;;;;11.00;99.90;;;;;;5107812;27;19924;-67
2021/12/20 10:59:07;;;;;;;;;;;11.10;99.90;;;;;;5104424;28;19930;-67
2021/12/20 11:04:23;;;;;;;;;;;10.90;99.90;;;;;;5096135;28;20014;-67
2021/12/20 11:09:44;;;;;;;;;;;11.10;99.90;;;;;;5108671;27;19924;-66
2021/12/20 11:12:15;;;;;;;;;;;10.60;99.90;;;;;;5104290;27;19958;-67
2021/12/20 11:14:46;;;;;;;;;;;10.40;99.90;;;;;;5093706;27;19924;-67
2021/12/20 11:17:14;;;;;;;;;;;10.40;99.90;;;;;;5098713;28;20294;-67
2021/12/20 11:19:42;;;;;;;;;;;10.00;99.90;;;;;;5105013;28;19934;-66
2021/12/20 11:22:17;;;;;;;;;;;9.70;99.90;;;;;;5104921;28;19923;-66
2021/12/20 11:24:46;;;;;;;;;;;9.90;99.90;;;;;;5095948;28;19927;-67
2021/12/20 11:27:32;;;;;;;;;;;10.60;99.90;;;;;;5103933;28;19931;-67
2021/12/20 11:30:08;;;;;;;;;;;11.20;99.90;;;;;;5100314;27;19963;-67
2021/12/20 11:32:34;;;;;;;;;;;11.50;99.90;;;;;;5099824;28;20019;-67
2021/12/20 11:35:01;;;;;;;;;;;11.90;99.90;;;;;;5100431;28;19928;-67
2021/12/20 11:37:28;;;;;;;;;;;12.20;99.90;;;;;;5099426;28;19928;-67
2021/12/20 11:39:56;;;;;;;;;;;12.10;99.90;;;;;;5101790;27;20022;-67
2021/12/20 11:42:23;;;;;;;;;;;11.60;99.90;;;;;;5100021;28;19923;-67
2021/12/20 11:44:54;;;;;;;;;;;11.50;99.90;;;;;;5091275;28;19930;-67
2021/12/20 11:47:39;;;;;;;;;;;11.60;99.90;;;;;;5097777;28;19923;-66
2021/12/20 11:50:06;;;;;;;;;;;11.80;99.90;;;;;;5109457;27;19935;-66
2021/12/20 11:52:34;;;;;;;;;;;12.20;99.90;;;;;;5109063;27;19930;-67
2021/12/20 11:55:14;;;;;;;;;;;12.30;99.90;;;;;;5102794;28;19929;-67
2021/12/20 11:57:42;;;;;;;;;;;12.40;99.90;;;;;;5101889;28;19930;-67
2021/12/20 12:00:11;;;;;;;;;;;12.60;99.90;;;;;;5099641;28;19924;-66
2021/12/20 12:02:43;;;;;;;;;;;12.50;99.90;;;;;;5107181;28;19924;-67
2021/12/20 12:05:11;;;;;;;;;;;12.30;99.90;;;;;;5104072;28;19928;-67
2021/12/20 12:07:38;;;;;;;;;;;12.40;99.90;;;;;;5101737;27;19924;-67
2021/12/20 12:10:07;;;;;;;;;;;12.70;99.90;;;;;;5105316;28;19931;-67
2021/12/20 12:12:44;;;;;;;;;;;13.10;99.90;;;;;;5101291;28;19930;-67
2021/12/20 12:15:31;;;;;;;;;;;13.20;99.70;;;;;;5102549;28;19931;-66
2021/12/20 12:18:04;;;;;;;;;;;13.30;99.50;;;;;;5106395;28;19947;-67
2021/12/20 12:20:49;;;;;;;;;;;13.20;99.60;;;;;;5105181;28;20022;-67
2021/12/20 12:23:17;;;;;;;;;;;13.20;99.10;;;;;;5099368;28;19928;-67
2021/12/20 12:25:46;;;;;;;;;;;13.40;98.80;;;;;;5096009;28;20484;-67
2021/12/20 12:28:14;;;;;;;;;;;12.90;98.80;;;;;;5094822;28;20023;-67
2021/12/20 12:30:41;;;;;;;;;;;12.70;99.40;;;;;;5099645;28;19932;-67
2021/12/20 12:33:11;;;;;;;;;;;13.40;99.60;;;;;;5089670;28;19932;-67
2021/12/20 12:35:39;;;;;;;;;;;13.30;98.60;;;;;;5097053;28;19928;-67
2021/12/20 12:38:18;;;;;;;;;;;13.00;98.20;;;;;;5098239;28;19935;-67
2021/12/20 12:40:48;;;;;;;;;;;11.80;98.00;;;;;;5093068;28;19970;-66
2021/12/20 12:43:16;;;;;;;;;;;11.10;98.70;;;;;;5093262;28;19931;-67
2021/12/20 12:45:50;;;;;;;;;;;10.50;99.10;;;;;;5096094;28;19924;-66
2021/12/20 12:48:36;;;;;;;;;;;10.20;99.90;;;;;;5090232;28;19927;-67
2021/12/20 12:51:23;;;;;;;;;;;10.00;99.90;;;;;;5093396;28;19934;-67
2021/12/20 12:53:52;;;;;;;;;;;10.30;99.90;;;;;;5091270;28;20002;-67
2021/12/20 12:56:25;;;;;;;;;;;10.70;99.90;;;;;;5099752;28;19936;-67
2021/12/20 12:59:10;;;;;;;;;;;10.70;99.50;;;;;;5089466;28;20442;-66
2021/12/20 13:01:38;;;;;;;;;;;10.70;99.60;;;;;;5089705;28;20435;-71
2021/12/20 13:04:06;;;;;;;;;;;10.60;99.10;;;;;;5089854;28;19928;-72
2021/12/20 13:06:33;;;;;;;;;;;10.50;99.10;;;;;;5093244;28;20606;-70
2021/12/20 13:09:00;;;;;;;;;;;10.60;99.20;;;;;;5094583;28;20014;-70
2021/12/20 13:11:30;;;;;;;;;;;10.60;98.80;;;;;;5098975;28;19924;-72
2021/12/20 13:14:22;;;;;;;;;;;10.60;98.80;;;;;;5091564;28;19935;-75
2021/12/20 13:17:01;;;;;;;;;;;9.70;99.50;;;;;;5098601;27;20042;-73
2021/12/20 13:19:30;;;;;;;;;;;8.80;99.90;;;;;;5099489;27;19931;-69
2021/12/20 13:21:59;;;;;;;;;;;8.30;99.90;;;;;;5111280;27;19946;-73
2021/12/20 13:24:33;;;;;;;;;;;7.80;99.90;;;;;;5137399;27;20454;-72
2021/12/20 13:27:07;;;;;;;;;;;7.30;99.90;;;;;;5104124;27;19928;-72
2021/12/20 13:29:34;;;;;;;;;;;6.90;99.90;;;;;;5098191;28;19924;-72
2021/12/20 13:32:05;;;;;;;;;;;6.70;99.90;;;;;;5103627;27;19924;-69
2021/12/20 13:34:32;;;;;;;;;;;6.50;99.90;;;;;;5097760;27;19973;-69
2021/12/20 13:37:06;;;;;;;;;;;6.30;99.90;;;;;;5103845;28;19932;-69
2021/12/20 13:39:33;;;;;;;;;;;6.20;99.90;;;;;;5099373;28;19946;-69
2021/12/20 13:42:07;;;;;;;;;;;6.00;99.90;;;;;;5100642;27;20014;-69
2021/12/20 13:44:34;;;;;;;;;;;5.90;99.90;;;;;;5090312;28;19928;-70
2021/12/20 13:47:05;;;;;;;;;;;5.80;99.90;;;;;;5106144;28;20440;-69
2021/12/20 13:49:32;;;;;;;;;;;5.80;99.90;;;;;;5104078;27;20270;-68
2021/12/20 13:52:03;;;;;;;;;;;5.70;99.90;;;;;;5093489;28;20034;-68
2021/12/20 13:54:36;;;;;;;;;;;5.60;99.90;;;;;;5104235;28;19923;-68
2021/12/20 13:57:08;;;;;;;;;;;5.50;99.90;;;;;;5095064;27;19953;-67
2021/12/20 13:59:37;;;;;;;;;;;5.40;99.90;;;;;;5102706;27;19938;-68
2021/12/20 14:02:05;;;;;;;;;;;5.30;99.90;;;;;;5094456;28;19938;-69
2021/12/20 14:04:35;;;;;;;;;;;5.20;99.90;;;;;;5099481;27;20521;-69
2021/12/20 14:07:03;;;;;;;;;;;5.20;99.90;;;;;;5100162;28;19981;-68
2021/12/20 14:09:38;;;;;;;;;;;5.10;99.90;;;;;;5094345;28;20056;-68
2021/12/20 14:12:14;;;;;;;;;;;5.00;99.90;;;;;;5095641;28;19945;-67
2021/12/20 14:15:19;;;;;;;;;;;4.90;99.90;;;;;;5102488;28;20317;-68
2021/12/20 14:18:00;;;;;;;;;;;4.80;99.90;;;;;;5035114;28;19925;-68
2021/12/20 14:20:38;;;;;;;;;;;4.70;99.90;;;;;;5030296;28;19956;-67
2021/12/20 14:23:22;;;;;;;;;;;4.60;99.90;;;;;;5038704;28;19931;-68
2021/12/20 14:25:51;;;;;;;;;;;4.50;99.90;;;;;;5020959;28;19939;-68
2021/12/20 14:28:25;;;;;;;;;;;4.50;99.90;;;;;;5041485;28;20401;-67
2021/12/20 14:30:56;;;;;;;;;;;4.40;99.90;;;;;;5020169;28;20833;-68
2021/12/20 14:33:30;;;;;;;;;;;4.30;99.90;;;;;;5029538;28;20031;-68
2021/12/20 14:36:16;;;;;;;;;;;4.30;99.90;;;;;;5038652;28;19932;-67
2021/12/20 14:39:05;;;;;;;;;;;4.20;99.90;;;;;;5022644;28;19933;-69
2021/12/20 14:41:35;;;;;;;;;;;4.10;99.90;;;;;;5026799;28;20019;-69
2021/12/20 14:44:08;;;;;;;;;;;4.00;99.90;;;;;;5042575;28;19925;-69
2021/12/20 14:46:54;;;;;;;;;;;3.90;99.90;;;;;;5038860;28;19920;-69
2021/12/20 14:49:29;;;;;;;;;;;3.80;99.90;;;;;;5090001;28;19965;-68
2021/12/20 14:52:05;;;;;;;;;;;3.70;99.90;;;;;;5094784;28;19927;-68
2021/12/20 14:54:38;;;;;;;;;;;3.60;99.90;;;;;;5096263;28;19959;-68
2021/12/20 14:57:11;;;;;;;;;;;3.50;99.90;;;;;;5091971;28;19930;-68
2021/12/20 14:59:38;;;;;;;;;;;3.30;99.90;;;;;;5107124;27;19923;-68
2021/12/20 15:02:07;;;;;;;;;;;3.30;99.90;;;;;;5098643;27;20003;-68